sensor_id;sensor_type;location;lat;lon;timestamp;temperature;humidity
19192;DHT22;9728;48.194;16.346;2023-03-23T00:02:04;20.20;54.50
19192;DHT22;9728;48.194;16.346;2023-03-23T00:07:06;20.10;54.70
19192;DHT22;9728;48.194;16.346;2023-03-23T00:12:08;20.10;54.70
19192;DHT22;9728;48.194;16.346;2023-03-23T00:17:14;20.00;54.80
19192;DHT22;9728;48.194;16.346;2023-03-23T00:22:16;20.00;54.90
19192;DHT22;9728;48.194;16.346;2023-03-23T00:27:22;19.90;54.90
19192;DHT22;9728;48.194;16.346;2023-03-23T00:32:26;19.80;55.00
19192;DHT22;9728;48.194;16.346;2023-03-23T00:37:29;19.80;55.10
19192;DHT22;9728;48.194;16.346;2023-03-23T00:42:31;19.80;55.10
19192;DHT22;9728;48.194;16.346;2023-03-23T00:47:40;19.70;55.10
19192;DHT22;9728;48.194;16.346;2023-03-23T00:52:47;19.70;55.50
19192;DHT22;9728;48.194;16.346;2023-03-23T00:57:53;19.60;55.50
19192;DHT22;9728;48.194;16.346;2023-03-23T01:02:56;19.60;55.60
19192;DHT22;9728;48.194;16.346;2023-03-23T01:07:59;19.50;55.70
19192;DHT22;9728;48.194;16.346;2023-03-23T01:13:05;19.50;55.70
19192;DHT22;9728;48.194;16.346;2023-03-23T01:18:09;19.50;55.70
19192;DHT22;9728;48.194;16.346;2023-03-23T01:23:11;19.50;55.80
19192;DHT22;9728;48.194;16.346;2023-03-23T01:28:14;19.40;55.60
19192;DHT22;9728;48.194;16.346;2023-03-23T01:33:17;19.40;56.30
19192;DHT22;9728;48.194;16.346;2023-03-23T01:38:20;19.30;55.80
19192;DHT22;9728;48.194;16.346;2023-03-23T01:43:23;19.30;55.80
19192;DHT22;9728;48.194;16.346;2023-03-23T01:48:29;19.20;55.80
19192;DHT22;9728;48.194;16.346;2023-03-23T01:53:36;19.20;56.00
19192;DHT22;9728;48.194;16.346;2023-03-23T01:58:40;19.10;56.00
19192;DHT22;9728;48.194;16.346;2023-03-23T02:03:45;19.10;55.90
19192;DHT22;9728;48.194;16.346;2023-03-23T02:08:49;19.00;56.10
19192;DHT22;9728;48.194;16.346;2023-03-23T02:13:53;18.90;56.00
19192;DHT22;9728;48.194;16.346;2023-03-23T02:19:14;18.90;56.10
19192;DHT22;9728;48.194;16.346;2023-03-23T02:24:41;18.90;56.80
19192;DHT22;9728;48.194;16.346;2023-03-23T02:30:11;18.80;56.80
19192;DHT22;9728;48.194;16.346;2023-03-23T02:35:20;18.70;56.80
19192;DHT22;9728;48.194;16.346;2023-03-23T02:40:27;18.70;56.60
19192;DHT22;9728;48.194;16.346;2023-03-23T02:45:33;18.60;56.50
19192;DHT22;9728;48.194;16.346;2023-03-23T02:50:41;18.60;56.50
19192;DHT22;9728;48.194;16.346;2023-03-23T02:55:44;18.60;56.80
19192;DHT22;9728;48.194;16.346;2023-03-23T03:00:54;18.50;56.70
19192;DHT22;9728;48.194;16.346;2023-03-23T03:06:06;18.40;56.70
19192;DHT22;9728;48.194;16.346;2023-03-23T03:11:13;18.40;57.20
19192;DHT22;9728;48.194;16.346;2023-03-23T03:16:23;18.40;56.90
19192;DHT22;9728;48.194;16.346;2023-03-23T03:21:31;18.30;57.30
19192;DHT22;9728;48.194;16.346;2023-03-23T03:26:35;18.30;57.30
19192;DHT22;9728;48.194;16.346;2023-03-23T03:31:58;18.20;57.00
19192;DHT22;9728;48.194;16.346;2023-03-23T03:37:04;18.20;57.20
19192;DHT22;9728;48.194;16.346;2023-03-23T03:42:09;18.10;57.40
19192;DHT22;9728;48.194;16.346;2023-03-23T03:47:11;18.10;58.00
19192;DHT22;9728;48.194;16.346;2023-03-23T03:52:14;18.10;57.30
19192;DHT22;9728;48.194;16.346;2023-03-23T03:57:18;18.00;57.40
19192;DHT22;9728;48.194;16.346;2023-03-23T04:02:40;18.00;57.40
19192;DHT22;9728;48.194;16.346;2023-03-23T04:07:44;18.00;57.40
19192;DHT22;9728;48.194;16.346;2023-03-23T04:12:53;17.90;57.60
19192;DHT22;9728;48.194;16.346;2023-03-23T04:18:15;17.90;57.50
19192;DHT22;9728;48.194;16.346;2023-03-23T04:23:22;17.80;57.50
19192;DHT22;9728;48.194;16.346;2023-03-23T04:28:26;17.80;57.70
19192;DHT22;9728;48.194;16.346;2023-03-23T04:33:56;17.80;57.80
19192;DHT22;9728;48.194;16.346;2023-03-23T04:39:06;17.80;57.90
19192;DHT22;9728;48.194;16.346;2023-03-23T04:44:11;17.70;58.00
19192;DHT22;9728;48.194;16.346;2023-03-23T04:49:22;17.70;57.90
19192;DHT22;9728;48.194;16.346;2023-03-23T04:54:33;17.70;57.90
19192;DHT22;9728;48.194;16.346;2023-03-23T04:59:36;17.70;58.10
19192;DHT22;9728;48.194;16.346;2023-03-23T05:04:44;17.60;57.90
19192;DHT22;9728;48.194;16.346;2023-03-23T05:09:52;17.60;58.00
19192;DHT22;9728;48.194;16.346;2023-03-23T05:14:57;17.60;58.30
19192;DHT22;9728;48.194;16.346;2023-03-23T05:20:03;17.60;58.20
19192;DHT22;9728;48.194;16.346;2023-03-23T05:25:21;17.50;58.30
19192;DHT22;9728;48.194;16.346;2023-03-23T05:30:32;17.50;58.40
19192;DHT22;9728;48.194;16.346;2023-03-23T05:35:34;17.40;58.30
19192;DHT22;9728;48.194;16.346;2023-03-23T05:40:39;17.40;58.50
19192;DHT22;9728;48.194;16.346;2023-03-23T05:46:00;17.50;59.20
19192;DHT22;9728;48.194;16.346;2023-03-23T05:51:05;17.50;58.60
19192;DHT22;9728;48.194;16.346;2023-03-23T05:56:13;17.50;58.70
19192;DHT22;9728;48.194;16.346;2023-03-23T06:01:35;17.50;58.90
19192;DHT22;9728;48.194;16.346;2023-03-23T06:06:38;17.50;58.80
19192;DHT22;9728;48.194;16.346;2023-03-23T06:11:45;17.50;58.80
19192;DHT22;9728;48.194;16.346;2023-03-23T06:17:04;17.50;59.00
19192;DHT22;9728;48.194;16.346;2023-03-23T06:22:07;17.50;58.90
19192;DHT22;9728;48.194;16.346;2023-03-23T06:27:36;17.60;59.00
19192;DHT22;9728;48.194;16.346;2023-03-23T06:32:39;17.60;59.00
19192;DHT22;9728;48.194;16.346;2023-03-23T06:37:45;17.70;59.00
19192;DHT22;9728;48.194;16.346;2023-03-23T06:42:56;17.70;59.20
19192;DHT22;9728;48.194;16.346;2023-03-23T06:47:58;17.80;59.30
19192;DHT22;9728;48.194;16.346;2023-03-23T06:53:04;17.80;59.20
19192;DHT22;9728;48.194;16.346;2023-03-23T06:58:08;17.90;59.20
19192;DHT22;9728;48.194;16.346;2023-03-23T07:03:11;18.00;59.40
19192;DHT22;9728;48.194;16.346;2023-03-23T07:08:14;18.10;59.30
19192;DHT22;9728;48.194;16.346;2023-03-23T07:13:24;18.10;59.20
19192;DHT22;9728;48.194;16.346;2023-03-23T07:18:30;18.20;59.30
19192;DHT22;9728;48.194;16.346;2023-03-23T07:23:34;18.30;59.30
19192;DHT22;9728;48.194;16.346;2023-03-23T07:28:47;18.40;59.20
19192;DHT22;9728;48.194;16.346;2023-03-23T07:34:05;18.50;59.20
19192;DHT22;9728;48.194;16.346;2023-03-23T07:39:27;18.60;59.00
19192;DHT22;9728;48.194;16.346;2023-03-23T07:44:34;18.70;59.10
19192;DHT22;9728;48.194;16.346;2023-03-23T07:49:43;18.80;59.30
19192;DHT22;9728;48.194;16.346;2023-03-23T07:54:54;18.90;59.00
19192;DHT22;9728;48.194;16.346;2023-03-23T08:00:13;19.00;59.10
19192;DHT22;9728;48.194;16.346;2023-03-23T08:05:21;19.10;59.20
19192;DHT22;9728;48.194;16.346;2023-03-23T08:10:42;19.20;59.00
19192;DHT22;9728;48.194;16.346;2023-03-23T08:16:10;19.30;59.00
19192;DHT22;9728;48.194;16.346;2023-03-23T08:21:35;19.40;59.00
19192;DHT22;9728;48.194;16.346;2023-03-23T08:26:52;19.50;58.80
19192;DHT22;9728;48.194;16.346;2023-03-23T08:32:22;19.60;58.70
19192;DHT22;9728;48.194;16.346;2023-03-23T08:37:28;19.70;58.60
19192;DHT22;9728;48.194;16.346;2023-03-23T08:42:56;19.80;58.60
19192;DHT22;9728;48.194;16.346;2023-03-23T08:48:18;19.90;58.50
19192;DHT22;9728;48.194;16.346;2023-03-23T08:53:38;19.90;58.40
19192;DHT22;9728;48.194;16.346;2023-03-23T08:59:00;20.00;58.40
19192;DHT22;9728;48.194;16.346;2023-03-23T09:04:13;20.20;58.50
19192;DHT22;9728;48.194;16.346;2023-03-23T09:09:33;20.30;58.40
19192;DHT22;9728;48.194;16.346;2023-03-23T09:14:36;20.50;58.60
19192;DHT22;9728;48.194;16.346;2023-03-23T09:19:39;20.70;58.60
19192;DHT22;9728;48.194;16.346;2023-03-23T09:24:42;20.90;58.50
19192;DHT22;9728;48.194;16.346;2023-03-23T09:29:44;21.20;58.40
19192;DHT22;9728;48.194;16.346;2023-03-23T09:34:50;21.50;58.40
19192;DHT22;9728;48.194;16.346;2023-03-23T09:39:56;21.80;58.30
19192;DHT22;9728;48.194;16.346;2023-03-23T09:45:09;22.10;58.20
19192;DHT22;9728;48.194;16.346;2023-03-23T09:50:16;22.40;57.50
19192;DHT22;9728;48.194;16.346;2023-03-23T09:55:21;22.70;57.50
19192;DHT22;9728;48.194;16.346;2023-03-23T10:00:29;23.10;57.20
19192;DHT22;9728;48.194;16.346;2023-03-23T10:05:35;23.40;56.90
19192;DHT22;9728;48.194;16.346;2023-03-23T10:10:50;23.80;56.60
19192;DHT22;9728;48.194;16.346;2023-03-23T10:15:55;24.10;56.20
19192;DHT22;9728;48.194;16.346;2023-03-23T10:21:00;24.50;56.40
19192;DHT22;9728;48.194;16.346;2023-03-23T10:26:08;24.80;55.80
19192;DHT22;9728;48.194;16.346;2023-03-23T10:31:15;25.20;55.30
19192;DHT22;9728;48.194;16.346;2023-03-23T10:36:23;25.60;55.10
19192;DHT22;9728;48.194;16.346;2023-03-23T10:41:26;25.90;54.60
19192;DHT22;9728;48.194;16.346;2023-03-23T10:46:36;26.20;54.60
19192;DHT22;9728;48.194;16.346;2023-03-23T10:51:43;26.60;53.60
19192;DHT22;9728;48.194;16.346;2023-03-23T10:56:46;26.90;53.60
19192;DHT22;9728;48.194;16.346;2023-03-23T11:01:51;27.20;53.60
19192;DHT22;9728;48.194;16.346;2023-03-23T11:07:00;27.60;53.30
19192;DHT22;9728;48.194;16.346;2023-03-23T11:12:03;27.90;52.60
19192;DHT22;9728;48.194;16.346;2023-03-23T11:17:20;28.20;52.90
19192;DHT22;9728;48.194;16.346;2023-03-23T11:22:26;28.40;51.30
19192;DHT22;9728;48.194;16.346;2023-03-23T11:27:29;28.70;51.70
19192;DHT22;9728;48.194;16.346;2023-03-23T11:32:32;28.90;51.80
19192;DHT22;9728;48.194;16.346;2023-03-23T11:37:40;29.20;51.40
19192;DHT22;9728;48.194;16.346;2023-03-23T11:42:45;29.40;50.10
19192;DHT22;9728;48.194;16.346;2023-03-23T11:48:03;29.50;50.20
19192;DHT22;9728;48.194;16.346;2023-03-23T11:53:15;29.60;49.40
19192;DHT22;9728;48.194;16.346;2023-03-23T11:58:22;29.60;48.90
19192;DHT22;9728;48.194;16.346;2023-03-23T12:03:35;29.60;49.30
19192;DHT22;9728;48.194;16.346;2023-03-23T12:09:01;29.60;48.70
19192;DHT22;9728;48.194;16.346;2023-03-23T12:14:14;29.60;48.00
19192;DHT22;9728;48.194;16.346;2023-03-23T12:19:25;29.50;48.30
19192;DHT22;9728;48.194;16.346;2023-03-23T12:24:46;29.40;48.00
19192;DHT22;9728;48.194;16.346;2023-03-23T12:30:02;29.30;47.80
19192;DHT22;9728;48.194;16.346;2023-03-23T12:35:19;29.20;48.00
19192;DHT22;9728;48.194;16.346;2023-03-23T12:40:41;29.00;47.80
19192;DHT22;9728;48.194;16.346;2023-03-23T12:51:14;28.90;48.00
19192;DHT22;9728;48.194;16.346;2023-03-23T12:56:26;28.90;48.20
19192;DHT22;9728;48.194;16.346;2023-03-23T13:01:33;28.80;48.00
19192;DHT22;9728;48.194;16.346;2023-03-23T13:06:39;28.80;48.40
19192;DHT22;9728;48.194;16.346;2023-03-23T13:11:43;28.80;48.60
19192;DHT22;9728;48.194;16.346;2023-03-23T13:17:05;28.90;48.80
19192;DHT22;9728;48.194;16.346;2023-03-23T13:22:11;29.00;48.40
19192;DHT22;9728;48.194;16.346;2023-03-23T13:27:17;29.10;48.40
19192;DHT22;9728;48.194;16.346;2023-03-23T13:32:19;29.20;48.40
19192;DHT22;9728;48.194;16.346;2023-03-23T13:37:24;29.30;48.40
19192;DHT22;9728;48.194;16.346;2023-03-23T13:42:29;29.40;48.00
19192;DHT22;9728;48.194;16.346;2023-03-23T13:47:38;29.40;47.70
19192;DHT22;9728;48.194;16.346;2023-03-23T13:52:50;29.40;47.30
19192;DHT22;9728;48.194;16.346;2023-03-23T13:57:58;29.30;46.90
19192;DHT22;9728;48.194;16.346;2023-03-23T14:03:01;29.30;47.10
19192;DHT22;9728;48.194;16.346;2023-03-23T14:08:12;29.20;47.20
19192;DHT22;9728;48.194;16.346;2023-03-23T14:13:20;29.10;46.80
19192;DHT22;9728;48.194;16.346;2023-03-23T14:18:27;29.00;47.20
19192;DHT22;9728;48.194;16.346;2023-03-23T14:23:32;28.90;47.00
19192;DHT22;9728;48.194;16.346;2023-03-23T14:28:41;28.80;47.20
19192;DHT22;9728;48.194;16.346;2023-03-23T14:33:44;28.80;46.90
19192;DHT22;9728;48.194;16.346;2023-03-23T14:38:46;28.70;47.30
19192;DHT22;9728;48.194;16.346;2023-03-23T14:43:50;28.60;47.40
19192;DHT22;9728;48.194;16.346;2023-03-23T14:48:53;28.60;47.40
19192;DHT22;9728;48.194;16.346;2023-03-23T14:53:55;28.50;47.30
19192;DHT22;9728;48.194;16.346;2023-03-23T14:59:04;28.50;47.20
19192;DHT22;9728;48.194;16.346;2023-03-23T15:04:09;28.40;46.80
19192;DHT22;9728;48.194;16.346;2023-03-23T15:09:15;28.30;46.90
19192;DHT22;9728;48.194;16.346;2023-03-23T15:14:22;28.30;46.90
19192;DHT22;9728;48.194;16.346;2023-03-23T15:19:27;28.20;46.80
19192;DHT22;9728;48.194;16.346;2023-03-23T15:24:33;28.20;46.80
19192;DHT22;9728;48.194;16.346;2023-03-23T15:29:46;28.10;46.50
19192;DHT22;9728;48.194;16.346;2023-03-23T15:34:49;28.10;46.20
19192;DHT22;9728;48.194;16.346;2023-03-23T15:39:52;28.10;46.70
19192;DHT22;9728;48.194;16.346;2023-03-23T15:45:12;28.00;46.80
19192;DHT22;9728;48.194;16.346;2023-03-23T15:50:20;27.90;46.40
19192;DHT22;9728;48.194;16.346;2023-03-23T15:55:25;27.90;46.60
19192;DHT22;9728;48.194;16.346;2023-03-23T16:00:29;27.80;46.80
19192;DHT22;9728;48.194;16.346;2023-03-23T16:05:33;27.80;46.80
19192;DHT22;9728;48.194;16.346;2023-03-23T16:10:37;27.70;46.80
19192;DHT22;9728;48.194;16.346;2023-03-23T16:15:46;27.60;46.90
19192;DHT22;9728;48.194;16.346;2023-03-23T16:20:50;27.60;46.90
19192;DHT22;9728;48.194;16.346;2023-03-23T16:25:53;27.50;46.90
19192;DHT22;9728;48.194;16.346;2023-03-23T16:30:58;27.50;47.00
19192;DHT22;9728;48.194;16.346;2023-03-23T16:36:02;27.40;46.90
19192;DHT22;9728;48.194;16.346;2023-03-23T16:41:06;27.30;47.10
19192;DHT22;9728;48.194;16.346;2023-03-23T16:46:11;27.20;47.00
19192;DHT22;9728;48.194;16.346;2023-03-23T16:51:18;27.20;47.00
19192;DHT22;9728;48.194;16.346;2023-03-23T16:56:22;27.10;47.20
19192;DHT22;9728;48.194;16.346;2023-03-23T17:01:27;27.10;47.20
19192;DHT22;9728;48.194;16.346;2023-03-23T17:06:30;27.00;47.40
19192;DHT22;9728;48.194;16.346;2023-03-23T17:11:33;26.90;47.50
19192;DHT22;9728;48.194;16.346;2023-03-23T17:16:38;26.80;47.60
19192;DHT22;9728;48.194;16.346;2023-03-23T17:21:42;26.70;47.50
19192;DHT22;9728;48.194;16.346;2023-03-23T17:26:46;26.70;47.70
19192;DHT22;9728;48.194;16.346;2023-03-23T17:31:51;26.60;47.80
19192;DHT22;9728;48.194;16.346;2023-03-23T17:36:55;26.50;47.80
19192;DHT22;9728;48.194;16.346;2023-03-23T17:42:00;26.50;48.00
19192;DHT22;9728;48.194;16.346;2023-03-23T17:47:06;26.40;48.10
19192;DHT22;9728;48.194;16.346;2023-03-23T17:52:13;26.30;48.20
19192;DHT22;9728;48.194;16.346;2023-03-23T17:57:18;26.20;48.40
19192;DHT22;9728;48.194;16.346;2023-03-23T18:02:24;26.20;48.60
19192;DHT22;9728;48.194;16.346;2023-03-23T18:07:29;26.10;48.60
19192;DHT22;9728;48.194;16.346;2023-03-23T18:12:34;26.00;48.60
19192;DHT22;9728;48.194;16.346;2023-03-23T18:17:40;26.00;48.70
19192;DHT22;9728;48.194;16.346;2023-03-23T18:22:47;25.80;48.70
19192;DHT22;9728;48.194;16.346;2023-03-23T18:27:52;25.80;48.80
19192;DHT22;9728;48.194;16.346;2023-03-23T18:33:08;25.70;48.90
19192;DHT22;9728;48.194;16.346;2023-03-23T18:38:13;25.60;49.10
19192;DHT22;9728;48.194;16.346;2023-03-23T18:43:21;25.50;49.10
19192;DHT22;9728;48.194;16.346;2023-03-23T18:48:28;25.50;49.20
19192;DHT22;9728;48.194;16.346;2023-03-23T18:53:35;25.40;49.20
19192;DHT22;9728;48.194;16.346;2023-03-23T18:58:40;25.30;49.50
19192;DHT22;9728;48.194;16.346;2023-03-23T19:03:47;25.20;49.40
19192;DHT22;9728;48.194;16.346;2023-03-23T19:08:53;25.10;49.70
19192;DHT22;9728;48.194;16.346;2023-03-23T19:13:59;25.00;49.70
19192;DHT22;9728;48.194;16.346;2023-03-23T19:19:07;25.00;49.80
19192;DHT22;9728;48.194;16.346;2023-03-23T19:24:12;24.90;50.00
19192;DHT22;9728;48.194;16.346;2023-03-23T19:29:19;24.80;50.00
19192;DHT22;9728;48.194;16.346;2023-03-23T19:34:28;24.70;50.10
19192;DHT22;9728;48.194;16.346;2023-03-23T19:39:39;24.60;50.20
19192;DHT22;9728;48.194;16.346;2023-03-23T19:44:46;24.60;50.30
19192;DHT22;9728;48.194;16.346;2023-03-23T19:49:54;24.50;50.40
19192;DHT22;9728;48.194;16.346;2023-03-23T19:55:03;24.50;50.50
19192;DHT22;9728;48.194;16.346;2023-03-23T20:00:10;24.40;50.60
19192;DHT22;9728;48.194;16.346;2023-03-23T20:05:19;24.40;50.60
19192;DHT22;9728;48.194;16.346;2023-03-23T20:10:25;24.30;50.70
19192;DHT22;9728;48.194;16.346;2023-03-23T20:15:32;24.20;50.70
19192;DHT22;9728;48.194;16.346;2023-03-23T20:20:41;24.20;50.90
19192;DHT22;9728;48.194;16.346;2023-03-23T20:25:47;24.10;51.10
19192;DHT22;9728;48.194;16.346;2023-03-23T20:31:02;24.10;51.00
19192;DHT22;9728;48.194;16.346;2023-03-23T20:36:25;24.00;51.30
19192;DHT22;9728;48.194;16.346;2023-03-23T20:41:33;24.00;51.20
19192;DHT22;9728;48.194;16.346;2023-03-23T20:46:40;23.90;51.30
19192;DHT22;9728;48.194;16.346;2023-03-23T20:51:51;23.90;51.20
19192;DHT22;9728;48.194;16.346;2023-03-23T20:56:56;23.80;51.50
19192;DHT22;9728;48.194;16.346;2023-03-23T21:02:01;23.80;51.30
19192;DHT22;9728;48.194;16.346;2023-03-23T21:07:11;23.80;51.40
19192;DHT22;9728;48.194;16.346;2023-03-23T21:12:18;23.80;51.70
19192;DHT22;9728;48.194;16.346;2023-03-23T21:17:22;23.70;51.80
19192;DHT22;9728;48.194;16.346;2023-03-23T21:22:29;23.70;51.80
19192;DHT22;9728;48.194;16.346;2023-03-23T21:27:34;23.70;51.80
19192;DHT22;9728;48.194;16.346;2023-03-23T21:32:38;23.70;51.70
19192;DHT22;9728;48.194;16.346;2023-03-23T21:37:44;23.60;51.80
19192;DHT22;9728;48.194;16.346;2023-03-23T21:42:49;23.60;52.00
19192;DHT22;9728;48.194;16.346;2023-03-23T21:47:54;23.60;51.90
19192;DHT22;9728;48.194;16.346;2023-03-23T21:53:00;23.60;51.90
19192;DHT22;9728;48.194;16.346;2023-03-23T21:58:04;23.50;52.10
19192;DHT22;9728;48.194;16.346;2023-03-23T22:03:08;23.50;52.20
19192;DHT22;9728;48.194;16.346;2023-03-23T22:08:13;23.40;52.20
19192;DHT22;9728;48.194;16.346;2023-03-23T22:13:18;23.40;52.30
19192;DHT22;9728;48.194;16.346;2023-03-23T22:18:21;23.40;52.30
19192;DHT22;9728;48.194;16.346;2023-03-23T22:23:26;23.40;52.30
19192;DHT22;9728;48.194;16.346;2023-03-23T22:28:30;23.30;52.40
19192;DHT22;9728;48.194;16.346;2023-03-23T22:33:35;23.30;52.40
19192;DHT22;9728;48.194;16.346;2023-03-23T22:38:42;23.30;52.40
19192;DHT22;9728;48.194;16.346;2023-03-23T22:43:46;23.20;52.50
19192;DHT22;9728;48.194;16.346;2023-03-23T22:48:50;23.10;52.50
19192;DHT22;9728;48.194;16.346;2023-03-23T22:53:55;23.10;52.60
19192;DHT22;9728;48.194;16.346;2023-03-23T22:58:58;23.00;52.70
19192;DHT22;9728;48.194;16.346;2023-03-23T23:04:03;23.00;52.70
19192;DHT22;9728;48.194;16.346;2023-03-23T23:09:08;23.00;52.80
19192;DHT22;9728;48.194;16.346;2023-03-23T23:14:12;22.90;52.90
19192;DHT22;9728;48.194;16.346;2023-03-23T23:19:15;22.90;52.90
19192;DHT22;9728;48.194;16.346;2023-03-23T23:24:20;22.90;53.10
19192;DHT22;9728;48.194;16.346;2023-03-23T23:29:24;22.80;53.10
19192;DHT22;9728;48.194;16.346;2023-03-23T23:34:27;22.80;53.10
19192;DHT22;9728;48.194;16.346;2023-03-23T23:39:32;22.70;53.20
19192;DHT22;9728;48.194;16.346;2023-03-23T23:44:39;22.70;53.30
19192;DHT22;9728;48.194;16.346;2023-03-23T23:49:44;22.70;53.40
19192;DHT22;9728;48.194;16.346;2023-03-23T23:54:49;22.60;53.40
19192;DHT22;9728;48.194;16.346;2023-03-23T23:59:53;22.60;53.50
